createdAt,value
2023-05-08T00:01:37.426Z,7.30
2023-05-08T00:04:05.196Z,7.15
2023-05-08T00:06:32.614Z,6.95
2023-05-08T00:09:00.077Z,7.65
2023-05-08T00:11:28.222Z,7.28
2023-05-08T00:13:55.258Z,7.18
2023-05-08T00:16:22.601Z,7.60
2023-05-08T00:18:49.718Z,7.30
2023-05-08T00:21:16.793Z,8.38
2023-05-08T00:23:43.797Z,6.85
2023-05-08T00:26:10.888Z,7.35
2023-05-08T00:28:37.980Z,7.75
2023-05-08T00:31:05.028Z,8.00
2023-05-08T00:33:31.985Z,7.25
2023-05-08T00:36:00.775Z,7.07
2023-05-08T00:38:31.413Z,7.38
2023-05-08T00:40:58.729Z,7.78
2023-05-08T00:43:28.041Z,8.77
2023-05-08T00:45:59.817Z,6.75
2023-05-08T00:48:29.149Z,6.82
2023-05-08T00:50:56.825Z,6.32
2023-05-08T00:53:23.854Z,6.97
2023-05-08T00:55:51.761Z,6.70
2023-05-08T00:58:22.830Z,5.97
2023-05-08T01:00:49.852Z,6.60
2023-05-08T01:03:17.046Z,6.88
2023-05-08T01:05:44.306Z,6.53
2023-05-08T01:08:11.448Z,6.97
2023-05-08T01:11:26.486Z,6.25
2023-05-08T01:14:13.441Z,7.07
2023-05-08T01:16:59.063Z,6.70
2023-05-08T01:19:35.316Z,6.32
2023-05-08T01:22:36.702Z,7.22
2023-05-08T01:25:13.364Z,5.78
2023-05-08T01:28:01.800Z,5.65
2023-05-08T01:30:44.551Z,6.60
2023-05-08T01:33:17.451Z,6.65
2023-05-08T01:35:53.220Z,6.57
2023-05-08T01:38:26.775Z,6.35
2023-05-08T01:40:56.965Z,6.28
2023-05-08T01:43:31.271Z,7.10
2023-05-08T01:45:59.609Z,6.78
2023-05-08T01:48:31.081Z,7.18
2023-05-08T01:51:04.727Z,5.60
2023-05-08T01:53:45.386Z,7.20
2023-05-08T01:56:15.649Z,6.25
2023-05-08T01:58:44.058Z,6.82
2023-05-08T02:01:12.802Z,6.00
2023-05-08T02:03:40.269Z,5.82
2023-05-08T02:06:08.132Z,6.65
2023-05-08T02:08:36.231Z,6.10
2023-05-08T02:11:04.865Z,5.95
2023-05-08T02:13:32.021Z,5.43
2023-05-08T02:15:59.879Z,5.63
2023-05-08T02:18:27.071Z,6.32
2023-05-08T02:20:54.785Z,5.80
2023-05-08T02:23:22.974Z,5.65
2023-05-08T02:25:50.205Z,5.68
2023-05-08T02:28:17.188Z,6.00
2023-05-08T02:30:44.236Z,6.30
2023-05-08T02:33:12.039Z,4.65
2023-05-08T02:35:40.338Z,4.97
2023-05-08T02:38:16.590Z,5.47
2023-05-08T02:40:48.609Z,5.07
2023-05-08T02:43:15.869Z,5.75
2023-05-08T02:45:50.102Z,5.82
2023-05-08T02:48:24.404Z,5.90
2023-05-08T02:51:09.375Z,6.07
2023-05-08T02:53:41.118Z,6.32
2023-05-08T02:56:12.117Z,5.65
2023-05-08T02:58:46.199Z,4.97
2023-05-08T03:01:26.072Z,5.22
2023-05-08T03:04:03.727Z,5.60
2023-05-08T03:06:34.851Z,5.90
2023-05-08T03:09:02.024Z,5.00
2023-05-08T03:11:42.411Z,4.97
2023-05-08T03:14:13.398Z,5.65
2023-05-08T03:16:41.993Z,5.20
2023-05-08T03:19:23.117Z,5.63
2023-05-08T03:21:52.188Z,6.10
2023-05-08T03:24:19.189Z,5.50
2023-05-08T03:26:47.586Z,5.90
2023-05-08T03:29:15.274Z,6.15
2023-05-08T03:31:42.732Z,5.53
2023-05-08T03:34:09.743Z,4.85
2023-05-08T03:36:36.991Z,6.90
2023-05-08T03:39:04.581Z,6.43
2023-05-08T03:41:31.795Z,6.22
2023-05-08T03:43:58.867Z,6.90
2023-05-08T03:46:26.257Z,6.63
2023-05-08T03:48:53.508Z,7.10
2023-05-08T03:51:20.781Z,7.30
2023-05-08T03:53:47.890Z,7.22
2023-05-08T03:56:14.904Z,7.30
2023-05-08T03:58:52.767Z,5.28
2023-05-08T04:01:32.136Z,7.13
2023-05-08T04:04:18.448Z,6.55
2023-05-08T04:07:02.693Z,9.80
2023-05-08T04:09:56.399Z,8.13
2023-05-08T04:12:57.833Z,9.68
2023-05-08T04:15:27.745Z,7.10
2023-05-08T04:18:16.396Z,6.78
2023-05-08T04:20:46.345Z,7.45
2023-05-08T04:23:15.823Z,6.90
2023-05-08T04:25:42.920Z,6.68
2023-05-08T04:28:10.517Z,6.15
2023-05-08T04:30:39.982Z,6.00
2023-05-08T04:33:07.906Z,5.97
2023-05-08T04:35:35.864Z,6.13
2023-05-08T04:38:04.795Z,5.80
2023-05-08T04:40:32.590Z,5.82
2023-05-08T04:42:59.780Z,5.63
2023-05-08T04:45:29.887Z,6.10
2023-05-08T04:47:56.897Z,5.30
2023-05-08T04:50:24.269Z,6.38
2023-05-08T04:52:51.442Z,5.13
2023-05-08T04:55:18.561Z,5.07
2023-05-08T04:57:47.605Z,5.15
2023-05-08T05:00:18.492Z,4.70
2023-05-08T05:02:46.982Z,5.25
2023-05-08T05:05:14.300Z,4.93
2023-05-08T05:07:41.931Z,5.18
2023-05-08T05:10:10.521Z,5.32
2023-05-08T05:12:38.632Z,4.93
2023-05-08T05:15:06.825Z,4.90
2023-05-08T05:17:36.893Z,5.00
2023-05-08T05:20:06.010Z,4.60
2023-05-08T05:22:33.415Z,5.28
2023-05-08T05:25:01.167Z,5.35
2023-05-08T05:27:29.786Z,4.22
2023-05-08T05:29:57.899Z,4.70
2023-05-08T05:32:26.571Z,4.25
2023-05-08T05:34:54.448Z,4.63
2023-05-08T05:37:22.380Z,4.55
2023-05-08T05:39:52.758Z,4.70
2023-05-08T05:42:19.884Z,4.68
2023-05-08T05:44:47.133Z,4.57
2023-05-08T05:47:14.651Z,4.45
2023-05-08T05:49:46.833Z,4.15
2023-05-08T05:52:14.576Z,4.32
2023-05-08T05:54:42.588Z,3.90
2023-05-08T05:57:11.920Z,4.22
2023-05-08T05:59:39.062Z,4.80
2023-05-08T06:02:10.417Z,4.43
2023-05-08T06:04:38.910Z,4.18
2023-05-08T06:07:07.252Z,4.10
2023-05-08T06:09:34.322Z,3.85
2023-05-08T06:12:01.985Z,3.88
2023-05-08T06:14:29.854Z,4.68
2023-05-08T06:16:57.046Z,4.90
2023-05-08T06:19:24.633Z,4.35
2023-05-08T06:21:52.178Z,4.93
2023-05-08T06:24:19.255Z,4.30
2023-05-08T06:26:46.953Z,4.70
2023-05-08T06:29:13.974Z,4.25
2023-05-08T06:31:40.961Z,4.10
2023-05-08T06:34:08.116Z,4.43
2023-05-08T06:36:36.398Z,4.63
2023-05-08T06:39:06.637Z,4.95
2023-05-08T06:41:34.684Z,4.78
2023-05-08T06:44:01.703Z,5.45
2023-05-08T06:46:30.021Z,5.57
2023-05-08T06:48:59.668Z,5.43
2023-05-08T06:51:27.158Z,5.78
2023-05-08T06:53:56.598Z,6.20
2023-05-08T06:56:24.837Z,6.90
2023-05-08T06:59:01.019Z,7.03
2023-05-08T07:01:35.822Z,6.43
2023-05-08T07:04:03.918Z,6.32
2023-05-08T07:06:31.973Z,4.80
2023-05-08T07:08:59.038Z,6.32
2023-05-08T07:11:26.841Z,5.88
2023-05-08T07:13:54.368Z,6.40
2023-05-08T07:16:22.042Z,5.93
2023-05-08T07:18:49.349Z,6.25
2023-05-08T07:21:18.090Z,5.82
2023-05-08T07:23:45.247Z,6.03
2023-05-08T07:26:12.419Z,5.97
2023-05-08T07:28:39.681Z,5.82
2023-05-08T07:31:09.408Z,5.80
2023-05-08T07:33:36.633Z,5.75
2023-05-08T07:36:03.790Z,5.43
2023-05-08T07:38:30.990Z,6.45
2023-05-08T07:40:59.670Z,6.50
2023-05-08T07:43:26.821Z,5.80
2023-05-08T07:45:53.904Z,6.15
2023-05-08T07:48:21.266Z,5.95
2023-05-08T07:50:50.813Z,6.28
2023-05-08T07:53:17.916Z,6.45
2023-05-08T07:55:44.970Z,6.72
2023-05-08T07:58:11.999Z,5.25
2023-05-08T08:00:40.738Z,5.68
2023-05-08T08:03:08.032Z,6.07
2023-05-08T08:05:35.083Z,7.32
2023-05-08T08:08:02.684Z,7.68
2023-05-08T08:10:30.106Z,7.18
2023-05-08T08:12:57.209Z,5.40
2023-05-08T08:15:24.729Z,6.43
2023-05-08T08:17:51.844Z,5.60
2023-05-08T08:20:19.140Z,5.90
2023-05-08T08:22:46.259Z,5.80
2023-05-08T08:25:13.778Z,5.72
2023-05-08T08:27:41.248Z,5.82
2023-05-08T08:30:17.027Z,5.80
2023-05-08T08:32:45.623Z,6.05
2023-05-08T08:35:13.398Z,5.20
2023-05-08T08:37:41.177Z,5.60
2023-05-08T08:40:08.716Z,6.03
2023-05-08T08:42:35.993Z,5.28
2023-05-08T08:45:03.313Z,4.85
2023-05-08T08:47:41.316Z,4.75
2023-05-08T08:50:10.709Z,4.65
2023-05-08T08:52:51.173Z,4.43
2023-05-08T08:55:18.623Z,5.05
2023-05-08T08:58:12.923Z,4.80
2023-05-08T09:00:40.412Z,5.05
2023-05-08T09:03:07.937Z,4.80
2023-05-08T09:05:35.889Z,4.63
2023-05-08T09:08:02.977Z,4.85
2023-05-08T09:10:31.340Z,4.97
2023-05-08T09:12:58.646Z,5.25
2023-05-08T09:15:29.801Z,4.70
2023-05-08T09:17:56.833Z,4.53
2023-05-08T09:20:24.008Z,4.57
2023-05-08T09:22:51.414Z,4.03
2023-05-08T09:25:24.828Z,4.10
2023-05-08T09:28:17.834Z,4.45
2023-05-08T09:30:58.858Z,4.10
2023-05-08T09:33:27.561Z,3.95
2023-05-08T09:35:55.923Z,4.55
2023-05-08T09:38:36.987Z,3.85
2023-05-08T09:41:15.688Z,4.47
2023-05-08T09:43:45.575Z,4.40
2023-05-08T09:46:27.025Z,4.35
2023-05-08T09:48:55.917Z,4.47
2023-05-08T09:51:24.162Z,4.45
2023-05-08T09:53:55.057Z,5.05
2023-05-08T09:56:40.095Z,4.07
2023-05-08T09:59:24.510Z,4.70
2023-05-08T10:01:51.673Z,4.72
2023-05-08T10:04:36.015Z,4.32
2023-05-08T10:07:08.619Z,4.30
2023-05-08T10:09:50.210Z,3.85
2023-05-08T10:12:18.290Z,3.85
2023-05-08T10:14:52.422Z,3.85
2023-05-08T10:17:27.067Z,3.83
2023-05-08T10:19:58.457Z,3.63
2023-05-08T10:22:26.237Z,3.42
2023-05-08T10:24:58.033Z,3.20
2023-05-08T10:27:36.604Z,3.17
2023-05-08T10:30:04.829Z,3.40
2023-05-08T10:32:38.654Z,3.15
2023-05-08T10:35:07.243Z,3.83
2023-05-08T10:37:37.614Z,3.50
2023-05-08T10:40:06.537Z,4.15
2023-05-08T10:42:34.347Z,3.25
2023-05-08T10:45:01.832Z,3.20
2023-05-08T10:48:03.814Z,3.00
2023-05-08T10:50:57.140Z,3.50
2023-05-08T10:53:36.124Z,3.53
2023-05-08T10:56:03.725Z,3.33
2023-05-08T10:58:32.058Z,3.25
2023-05-08T11:01:07.746Z,3.65
2023-05-08T11:03:43.913Z,3.45
2023-05-08T11:06:11.679Z,3.95
2023-05-08T11:08:49.778Z,3.88
2023-05-08T11:11:33.796Z,3.75
2023-05-08T11:14:07.532Z,3.45
2023-05-08T11:17:02.241Z,3.20
2023-05-08T11:19:29.980Z,3.53
2023-05-08T11:22:16.085Z,3.60
2023-05-08T11:25:10.006Z,3.17
2023-05-08T11:27:46.856Z,3.35
2023-05-08T11:30:26.813Z,3.60
2023-05-08T11:33:08.923Z,3.30
2023-05-08T11:36:01.632Z,3.55
2023-05-08T11:38:36.379Z,3.55
2023-05-08T11:41:10.810Z,4.90
2023-05-08T11:46:16.931Z,4.03
2023-05-08T11:48:44.304Z,3.25
2023-05-08T11:52:36.656Z,3.22
2023-05-08T11:58:26.706Z,3.55
2023-05-08T12:01:34.723Z,3.40
2023-05-08T12:04:46.656Z,3.85
2023-05-08T12:07:14.236Z,4.18
2023-05-08T12:10:00.305Z,3.65
2023-05-08T12:12:43.105Z,3.70
2023-05-08T12:15:14.642Z,3.88
2023-05-08T12:17:45.122Z,3.78
2023-05-08T12:20:19.240Z,3.38
2023-05-08T12:22:52.277Z,3.63
2023-05-08T12:25:20.691Z,3.80
2023-05-08T12:27:47.809Z,3.20
2023-05-08T12:30:18.497Z,3.45
2023-05-08T12:32:47.360Z,3.55
2023-05-08T12:35:14.462Z,3.72
2023-05-08T12:37:47.908Z,3.45
2023-05-08T12:40:28.990Z,3.90
2023-05-08T12:42:57.929Z,4.28
2023-05-08T12:45:28.224Z,4.18
2023-05-08T12:47:59.876Z,4.18
2023-05-08T12:50:38.842Z,3.83
2023-05-08T12:53:06.952Z,3.88
2023-05-08T12:55:37.909Z,4.28
2023-05-08T12:58:18.303Z,4.30
2023-05-08T13:00:50.072Z,4.10
2023-05-08T13:03:29.909Z,3.67
2023-05-08T13:06:01.022Z,3.72
2023-05-08T13:08:35.954Z,4.10
2023-05-08T13:11:05.610Z,4.60
2023-05-08T13:13:35.936Z,4.00
2023-05-08T13:16:12.046Z,4.22
2023-05-08T13:18:42.498Z,4.55
2023-05-08T13:21:11.942Z,4.35
2023-05-08T13:23:40.059Z,3.78
2023-05-08T13:26:07.131Z,4.43
2023-05-08T13:28:38.165Z,3.75
2023-05-08T13:31:05.521Z,4.10
2023-05-08T13:33:33.533Z,4.32
2023-05-08T13:36:00.704Z,4.10
2023-05-08T13:38:27.837Z,3.72
2023-05-08T13:40:58.687Z,4.00
2023-05-08T13:43:25.826Z,3.35
2023-05-08T13:45:53.889Z,3.22
2023-05-08T13:48:23.806Z,3.40
2023-05-08T13:51:01.639Z,3.70
2023-05-08T13:53:29.014Z,4.28
2023-05-08T13:55:57.595Z,4.43
2023-05-08T13:58:24.642Z,4.22
2023-05-08T14:00:51.801Z,3.90
2023-05-08T14:03:24.681Z,4.03
2023-05-08T14:05:52.944Z,3.53
2023-05-08T14:08:20.016Z,4.32
2023-05-08T14:10:47.815Z,3.78
2023-05-08T14:13:15.941Z,4.05
2023-05-08T14:15:46.659Z,3.95
2023-05-08T14:18:13.910Z,4.35
2023-05-08T14:20:40.990Z,3.90
2023-05-08T14:23:10.578Z,3.80
2023-05-08T14:25:37.648Z,4.07
2023-05-08T14:28:08.261Z,4.32
2023-05-08T14:30:42.111Z,4.05
2023-05-08T14:33:09.806Z,4.53
2023-05-08T14:35:45.606Z,3.97
2023-05-08T14:38:14.088Z,3.97
2023-05-08T14:40:41.917Z,4.43
2023-05-08T14:43:10.048Z,3.88
2023-05-08T14:45:37.880Z,3.80
2023-05-08T14:48:08.874Z,3.90
2023-05-08T14:50:35.989Z,4.03
2023-05-08T14:53:03.476Z,3.40
2023-05-08T14:55:31.075Z,4.03
2023-05-08T14:58:00.976Z,3.60
2023-05-08T15:00:28.688Z,3.70
2023-05-08T15:02:57.850Z,4.50
2023-05-08T15:05:31.672Z,3.60
2023-05-08T15:08:02.684Z,3.65
2023-05-08T15:10:33.461Z,4.00
2023-05-08T15:13:00.870Z,3.53
2023-05-08T15:15:42.466Z,3.75
2023-05-08T15:18:09.903Z,3.53
2023-05-08T15:20:41.955Z,4.15
2023-05-08T15:23:12.114Z,3.60
2023-05-08T15:25:44.346Z,4.03
2023-05-08T15:28:34.832Z,4.43
2023-05-08T15:31:04.905Z,4.05
2023-05-08T15:33:32.068Z,3.88
2023-05-08T15:35:59.131Z,3.97
2023-05-08T15:38:26.725Z,3.55
2023-05-08T15:40:53.750Z,3.60
2023-05-08T15:43:21.772Z,4.15
2023-05-08T15:45:48.969Z,4.18
2023-05-08T15:48:16.284Z,4.07
2023-05-08T15:50:43.678Z,3.60
2023-05-08T15:53:12.649Z,4.38
2023-05-08T15:55:39.698Z,4.22
2023-05-08T15:58:06.977Z,4.15
2023-05-08T16:00:44.048Z,3.88
2023-05-08T16:03:14.363Z,3.63
2023-05-08T16:05:41.543Z,3.60
2023-05-08T16:08:12.328Z,4.80
2023-05-08T16:10:41.020Z,4.22
2023-05-08T16:13:08.974Z,3.80
2023-05-08T16:15:36.230Z,3.50
2023-05-08T16:18:03.453Z,3.28
2023-05-08T16:20:33.465Z,4.47
2023-05-08T16:23:05.180Z,3.47
2023-05-08T16:25:32.386Z,3.95
2023-05-08T16:27:59.637Z,3.38
2023-05-08T16:30:26.788Z,4.22
2023-05-08T16:32:53.830Z,3.90
2023-05-08T16:35:21.087Z,3.58
2023-05-08T16:37:48.547Z,4.30
2023-05-08T16:40:15.643Z,3.80
2023-05-08T16:42:42.654Z,3.72
2023-05-08T16:45:10.158Z,3.20
2023-05-08T16:47:37.279Z,3.53
2023-05-08T16:50:05.628Z,3.47
2023-05-08T16:52:35.726Z,3.08
2023-05-08T16:55:03.820Z,3.50
2023-05-08T16:57:31.386Z,3.40
2023-05-08T17:00:01.359Z,3.78
2023-05-08T17:02:29.820Z,3.67
2023-05-08T17:04:56.988Z,3.67
2023-05-08T17:07:25.011Z,3.63
2023-05-08T17:09:56.135Z,3.47
2023-05-08T17:12:24.153Z,3.92
2023-05-08T17:14:51.581Z,3.47
2023-05-08T17:17:18.721Z,4.32
2023-05-08T17:19:45.864Z,3.80
2023-05-08T17:22:13.183Z,3.55
2023-05-08T17:24:40.267Z,3.90
2023-05-08T17:27:07.728Z,3.65
2023-05-08T17:29:35.587Z,4.00
2023-05-08T17:32:02.765Z,3.53
2023-05-08T17:34:30.699Z,3.47
2023-05-08T17:36:57.757Z,3.63
2023-05-08T17:39:28.429Z,3.80
2023-05-08T17:41:58.541Z,4.32
2023-05-08T17:44:25.757Z,4.40
2023-05-08T17:46:53.840Z,3.42
2023-05-08T17:49:20.944Z,3.50
2023-05-08T17:51:49.393Z,4.03
2023-05-08T17:54:16.475Z,4.00
2023-05-08T17:56:44.041Z,3.70
2023-05-08T17:59:11.133Z,4.68
2023-05-08T18:01:38.241Z,4.28
2023-05-08T18:04:05.736Z,4.07
2023-05-08T18:06:33.270Z,3.63
2023-05-08T18:09:00.566Z,4.00
2023-05-08T18:11:27.636Z,3.85
2023-05-08T18:13:54.787Z,4.30
2023-05-08T18:16:22.238Z,4.47
2023-05-08T18:18:52.660Z,5.72
2023-05-08T18:21:57.088Z,4.35
2023-05-08T18:24:24.628Z,4.20
2023-05-08T18:29:58.310Z,4.03
2023-05-08T18:32:46.798Z,4.25
2023-05-08T18:36:11.811Z,4.32
2023-05-08T18:38:54.394Z,4.10
2023-05-08T18:42:18.069Z,4.50
2023-05-08T18:49:09.018Z,5.72
2023-05-08T18:54:00.474Z,4.65
2023-05-08T18:56:34.364Z,4.43
2023-05-08T18:59:25.165Z,4.78
2023-05-08T19:01:57.733Z,4.35
2023-05-08T19:04:28.317Z,4.55
2023-05-08T19:07:04.374Z,4.57
2023-05-08T19:09:33.634Z,4.30
2023-05-08T19:12:00.654Z,5.40
2023-05-08T19:14:27.741Z,4.75
2023-05-08T19:16:56.314Z,4.20
2023-05-08T19:19:25.862Z,5.00
2023-05-08T19:21:52.879Z,4.43
2023-05-08T19:24:21.100Z,5.07
2023-05-08T19:26:48.170Z,4.60
2023-05-08T19:29:16.778Z,5.35
2023-05-08T19:31:44.014Z,6.13
2023-05-08T19:34:11.101Z,5.45
2023-05-08T19:36:38.169Z,5.40
2023-05-08T19:39:05.445Z,5.30
2023-05-08T19:41:33.693Z,4.82
2023-05-08T19:44:00.741Z,5.28
2023-05-08T19:46:27.768Z,5.05
2023-05-08T19:48:56.352Z,5.57
2023-05-08T19:51:23.581Z,5.32
2023-05-08T19:53:50.590Z,5.28
2023-05-08T19:56:19.678Z,5.35
2023-05-08T19:58:47.417Z,5.57
2023-05-08T20:01:14.503Z,5.28
2023-05-08T20:03:41.637Z,6.30
2023-05-08T20:06:09.812Z,6.47
2023-05-08T20:08:36.871Z,6.10
2023-05-08T20:11:04.149Z,6.60
2023-05-08T20:13:31.738Z,6.75
2023-05-08T20:15:59.097Z,5.53
2023-05-08T20:18:26.264Z,5.90
2023-05-08T20:20:53.960Z,5.63
2023-05-08T20:23:21.005Z,5.85
2023-05-08T20:25:48.110Z,6.10
2023-05-08T20:28:15.549Z,5.78
2023-05-08T20:30:42.553Z,6.07
2023-05-08T20:33:09.705Z,6.40
2023-05-08T20:35:37.010Z,6.40
2023-05-08T20:38:04.200Z,7.10
2023-05-08T20:40:31.279Z,7.20
2023-05-08T20:42:58.821Z,6.78
2023-05-08T20:45:28.903Z,6.35
2023-05-08T20:47:56.862Z,6.03
2023-05-08T20:50:23.974Z,6.18
2023-05-08T20:52:51.758Z,6.10
2023-05-08T20:55:18.923Z,6.20
2023-05-08T20:57:46.166Z,6.00
2023-05-08T21:00:13.699Z,7.50
2023-05-08T21:02:42.188Z,6.75
2023-05-08T21:05:10.153Z,6.63
2023-05-08T21:07:37.333Z,6.53
2023-05-08T21:10:04.921Z,7.07
2023-05-08T21:12:31.972Z,7.00
2023-05-08T21:14:58.911Z,6.53
2023-05-08T21:17:26.035Z,6.65
2023-05-08T21:19:53.063Z,6.63
2023-05-08T21:22:20.198Z,5.72
2023-05-08T21:24:47.258Z,5.78
2023-05-08T21:27:14.357Z,5.93
2023-05-08T21:29:41.484Z,5.97
2023-05-08T21:32:10.100Z,5.93
2023-05-08T21:34:37.516Z,5.45
2023-05-08T21:37:04.558Z,6.60
2023-05-08T21:39:31.673Z,6.88
2023-05-08T21:41:58.736Z,5.78
2023-05-08T21:44:25.802Z,6.07
2023-05-08T21:46:53.087Z,6.60
2023-05-08T21:49:21.354Z,6.90
2023-05-08T21:51:48.378Z,6.60
2023-05-08T21:54:15.444Z,6.65
2023-05-08T21:56:42.438Z,7.07
2023-05-08T21:59:09.520Z,6.13
2023-05-08T22:01:37.241Z,6.07
2023-05-08T22:04:04.927Z,6.63
2023-05-08T22:06:32.965Z,5.72
2023-05-08T22:09:00.771Z,6.85
2023-05-08T22:11:28.365Z,6.60
2023-05-08T22:13:55.384Z,6.63
2023-05-08T22:16:22.955Z,6.47
2023-05-08T22:18:49.957Z,6.60
2023-05-08T22:21:16.936Z,6.30
2023-05-08T22:23:43.989Z,7.30
2023-05-08T22:26:11.021Z,7.03
2023-05-08T22:28:38.297Z,5.80
2023-05-08T22:31:07.835Z,7.10
2023-05-08T22:33:35.454Z,6.57
2023-05-08T22:36:02.700Z,7.32
2023-05-08T22:38:30.101Z,7.20
2023-05-08T22:41:00.091Z,7.15
2023-05-08T22:43:27.537Z,7.70
2023-05-08T22:45:55.129Z,7.63
2023-05-08T22:48:22.550Z,8.07
2023-05-08T22:50:49.933Z,7.28
2023-05-08T22:53:18.492Z,7.05
2023-05-08T22:55:45.570Z,7.55
2023-05-08T22:58:12.589Z,7.53
2023-05-08T23:00:39.665Z,7.43
2023-05-08T23:03:06.768Z,7.50
2023-05-08T23:05:33.970Z,8.05
2023-05-08T23:08:01.472Z,7.10
2023-05-08T23:10:28.455Z,8.18
2023-05-08T23:12:55.910Z,8.02
2023-05-08T23:15:24.139Z,7.60
2023-05-08T23:17:51.190Z,7.60
2023-05-08T23:20:18.348Z,7.68
2023-05-08T23:22:45.443Z,7.53
2023-05-08T23:25:12.686Z,7.85
2023-05-08T23:27:40.675Z,8.40
2023-05-08T23:30:08.304Z,7.90
2023-05-08T23:32:35.278Z,8.23
2023-05-08T23:35:02.325Z,7.88
2023-05-08T23:37:29.775Z,7.95
2023-05-08T23:39:56.923Z,7.85
2023-05-08T23:42:24.062Z,8.13
2023-05-08T23:44:51.078Z,7.60
2023-05-08T23:47:20.805Z,8.43
2023-05-08T23:49:48.602Z,8.35
2023-05-08T23:52:15.837Z,9.00
2023-05-08T23:54:42.843Z,8.68
2023-05-08T23:57:10.047Z,9.13
2023-05-08T23:59:37.892Z,8.52
